createdAt,value
2018-12-11T00:02:22.113Z,99531.29
2018-12-11T00:04:50.423Z,99536.51
2018-12-11T00:07:19.344Z,99534.28
2018-12-11T00:09:47.833Z,99526.34
2018-12-11T00:12:16.371Z,99528.53
2018-12-11T00:14:44.700Z,99537.30
2018-12-11T00:17:13.154Z,99539.95
2018-12-11T00:19:41.823Z,99542.83
2018-12-11T00:22:10.921Z,99536.51
2018-12-11T00:24:39.307Z,99537.00
2018-12-11T00:27:07.658Z,99524.04
2018-12-11T00:29:35.986Z,99525.10
2018-12-11T00:32:04.359Z,99529.59
2018-12-11T00:34:32.684Z,99535.00
2018-12-11T00:37:01.010Z,99534.57
2018-12-11T00:39:29.461Z,99533.85
2018-12-11T00:41:57.839Z,99534.64
2018-12-11T00:44:26.835Z,99539.78
2018-12-11T00:46:55.278Z,99534.19
2018-12-11T00:49:23.619Z,99525.78
2018-12-11T00:51:51.932Z,99534.36
2018-12-11T00:54:20.672Z,99530.16
2018-12-11T00:56:49.292Z,99529.13
2018-12-11T00:59:17.636Z,99542.95
2018-12-11T01:01:46.191Z,99540.05
2018-12-11T01:04:14.584Z,99536.31
2018-12-11T01:06:43.008Z,99542.70
2018-12-11T01:09:11.426Z,99542.99
2018-12-11T01:11:39.860Z,99545.64
2018-12-11T01:14:08.401Z,99545.64
2018-12-11T01:16:36.823Z,99543.52
2018-12-11T01:19:05.278Z,99542.63
2018-12-11T01:21:33.605Z,99542.03
2018-12-11T01:24:02.013Z,99548.02
2018-12-11T01:26:30.483Z,99554.59
2018-12-11T01:28:59.286Z,99551.13
2018-12-11T01:31:28.012Z,99554.53
2018-12-11T01:33:56.421Z,99552.60
2018-12-11T01:36:25.690Z,99550.19
2018-12-11T01:38:54.197Z,99564.52
2018-12-11T01:41:22.570Z,99570.56
2018-12-11T01:43:50.897Z,99575.02
2018-12-11T01:46:19.289Z,99575.05
2018-12-11T01:48:47.646Z,99565.30
2018-12-11T01:51:15.992Z,99566.59
2018-12-11T01:53:44.316Z,99562.16
2018-12-11T01:56:12.621Z,99562.70
2018-12-11T01:58:41.820Z,99568.81
2018-12-11T02:01:10.130Z,99571.80
2018-12-11T02:03:39.300Z,99573.42
2018-12-11T02:06:07.982Z,99572.36
2018-12-11T02:08:36.451Z,99567.41
2018-12-11T02:11:04.928Z,99569.86
2018-12-11T02:13:33.359Z,99562.75
2018-12-11T02:16:01.694Z,99569.66
2018-12-11T02:18:30.151Z,99569.09
2018-12-11T02:20:58.467Z,99575.25
2018-12-11T02:23:27.114Z,99574.00
2018-12-11T02:25:55.448Z,99568.20
2018-12-11T02:28:23.812Z,99580.69
2018-12-11T02:30:53.901Z,99573.90
2018-12-11T02:33:22.328Z,99582.11
2018-12-11T02:35:50.707Z,99577.17
2018-12-11T02:38:19.185Z,99580.42
2018-12-11T02:40:48.126Z,99568.77
2018-12-11T02:43:16.450Z,99582.33
2018-12-11T02:45:44.918Z,99577.34
2018-12-11T02:48:13.219Z,99568.36
2018-12-11T02:50:41.550Z,99573.42
2018-12-11T02:53:09.977Z,99572.42
2018-12-11T02:55:38.418Z,99561.50
2018-12-11T02:58:06.859Z,99560.73
2018-12-11T03:00:35.240Z,99562.39
2018-12-11T03:03:04.224Z,99552.32
2018-12-11T03:05:32.557Z,99560.00
2018-12-11T03:08:00.945Z,99558.97
2018-12-11T03:10:29.353Z,99554.73
2018-12-11T03:12:57.917Z,99561.13
2018-12-11T03:15:26.332Z,99558.50
2018-12-11T03:17:55.413Z,99569.36
2018-12-11T03:20:23.807Z,99557.70
2018-12-11T03:22:52.480Z,99560.33
2018-12-11T03:25:20.889Z,99562.12
2018-12-11T03:27:49.290Z,99569.04
2018-12-11T03:30:17.710Z,99571.95
2018-12-11T03:32:46.213Z,99571.16
2018-12-11T03:35:14.545Z,99565.09
2018-12-11T03:37:42.887Z,99568.00
2018-12-11T03:40:11.271Z,99557.97
2018-12-11T03:42:39.722Z,99555.85
2018-12-11T03:45:08.442Z,99555.27
2018-12-11T03:47:36.790Z,99558.23
2018-12-11T03:50:06.274Z,99553.14
2018-12-11T03:52:34.725Z,99554.17
2018-12-11T03:55:03.112Z,99558.14
2018-12-11T03:57:32.117Z,99558.12
2018-12-11T04:00:00.533Z,99554.11
2018-12-11T04:02:28.859Z,99549.94
2018-12-11T04:04:57.286Z,99554.47
2018-12-11T04:07:25.714Z,99547.84
2018-12-11T04:09:54.037Z,99560.50
2018-12-11T04:12:22.495Z,99559.70
2018-12-11T04:14:50.806Z,99562.83
2018-12-11T04:17:19.438Z,99567.86
2018-12-11T04:19:48.807Z,99566.80
2018-12-11T04:22:17.484Z,99559.12
2018-12-11T04:24:46.361Z,99563.36
2018-12-11T04:27:15.459Z,99558.27
2018-12-11T04:29:43.885Z,99564.62
2018-12-11T04:32:12.211Z,99563.83
2018-12-11T04:34:40.602Z,99559.32
2018-12-11T04:37:08.953Z,99564.39
2018-12-11T04:39:37.370Z,99557.73
2018-12-11T04:42:05.696Z,99558.80
2018-12-11T04:44:34.039Z,99558.53
2018-12-11T04:47:02.370Z,99551.94
2018-12-11T04:49:30.811Z,99553.50
2018-12-11T04:51:59.175Z,99550.64
2018-12-11T04:54:27.521Z,99555.61
2018-12-11T04:56:55.847Z,99554.05
2018-12-11T04:59:25.200Z,99551.41
2018-12-11T05:01:54.603Z,99549.31
2018-12-11T05:04:22.931Z,99533.95
2018-12-11T05:06:51.448Z,99545.34
2018-12-11T05:09:19.863Z,99546.67
2018-12-11T05:11:48.250Z,99552.23
2018-12-11T05:14:16.577Z,99550.64
2018-12-11T05:16:44.907Z,99545.11
2018-12-11T05:19:13.260Z,99544.81
2018-12-11T05:21:41.714Z,99545.88
2018-12-11T05:24:10.072Z,99556.20
2018-12-11T05:26:38.440Z,99534.48
2018-12-11T05:29:06.919Z,99537.60
2018-12-11T05:31:35.284Z,99542.34
2018-12-11T05:34:03.627Z,99536.28
2018-12-11T05:36:31.969Z,99529.13
2018-12-11T05:39:00.422Z,99532.10
2018-12-11T05:41:28.830Z,99533.42
2018-12-11T05:43:57.141Z,99527.59
2018-12-11T05:46:25.502Z,99533.69
2018-12-11T05:48:53.816Z,99530.30
2018-12-11T05:51:22.165Z,99528.48
2018-12-11T05:53:50.596Z,99530.89
2018-12-11T05:56:18.967Z,99524.03
2018-12-11T05:58:47.363Z,99521.34
2018-12-11T06:01:15.782Z,99518.57
2018-12-11T06:03:44.604Z,99512.81
2018-12-11T06:06:14.109Z,99520.00
2018-12-11T06:08:42.513Z,99504.98
2018-12-11T06:11:11.082Z,99516.59
2018-12-11T06:13:39.478Z,99525.34
2018-12-11T06:16:07.941Z,99529.30
2018-12-11T06:18:36.270Z,99532.55
2018-12-11T06:21:04.665Z,99533.02
2018-12-11T06:23:32.972Z,99525.32
2018-12-11T06:26:01.395Z,99525.73
2018-12-11T06:28:29.883Z,99523.93
2018-12-11T06:30:58.764Z,99514.05
2018-12-11T06:33:27.120Z,99530.94
2018-12-11T06:35:55.504Z,99533.56
2018-12-11T06:38:24.271Z,99521.64
2018-12-11T06:40:52.957Z,99526.84
2018-12-11T06:43:21.378Z,99536.33
2018-12-11T06:45:49.754Z,99525.91
2018-12-11T06:48:18.079Z,99540.66
2018-12-11T06:50:46.502Z,99525.48
2018-12-11T06:53:14.836Z,99530.42
2018-12-11T06:55:43.176Z,99530.36
2018-12-11T06:58:11.541Z,99538.81
2018-12-11T07:00:39.893Z,99520.21
2018-12-11T07:03:08.362Z,99526.00
2018-12-11T07:05:36.793Z,99529.98
2018-12-11T07:08:05.161Z,99542.16
2018-12-11T07:10:33.538Z,99542.92
2018-12-11T07:13:01.938Z,99562.78
2018-12-11T07:15:30.305Z,99553.52
2018-12-11T07:17:58.695Z,99566.72
2018-12-11T07:20:27.072Z,99572.55
2018-12-11T07:22:55.418Z,99566.69
2018-12-11T07:25:23.968Z,99570.36
2018-12-11T07:27:52.321Z,99584.92
2018-12-11T07:30:20.760Z,99575.92
2018-12-11T07:32:49.267Z,99581.45
2018-12-11T07:35:17.704Z,99582.17
2018-12-11T07:37:46.127Z,99573.63
2018-12-11T07:40:14.510Z,99572.84
2018-12-11T07:42:42.932Z,99586.08
2018-12-11T07:45:11.424Z,99584.95
2018-12-11T07:47:39.784Z,99581.73
2018-12-11T07:50:09.221Z,99581.70
2018-12-11T07:52:37.738Z,99590.73
2018-12-11T07:55:06.104Z,99590.50
2018-12-11T07:57:34.436Z,99591.03
2018-12-11T08:00:03.125Z,99587.06
2018-12-11T08:02:31.493Z,99597.12
2018-12-11T08:05:00.817Z,99597.12
2018-12-11T08:07:29.236Z,99598.71
2018-12-11T08:09:57.613Z,99595.00
2018-12-11T08:12:25.946Z,99594.55
2018-12-11T08:14:54.372Z,99589.81
2018-12-11T08:17:22.751Z,99597.49
2018-12-11T08:19:51.095Z,99594.84
2018-12-11T08:22:19.511Z,99597.75
2018-12-11T08:24:47.820Z,99601.77
2018-12-11T08:27:18.052Z,99619.95
2018-12-11T08:29:46.528Z,99619.16
2018-12-11T08:32:14.925Z,99626.61
2018-12-11T08:34:43.255Z,99625.81
2018-12-11T08:37:11.628Z,99615.19
2018-12-11T08:39:39.967Z,99621.02
2018-12-11T08:42:08.401Z,99631.56
2018-12-11T08:44:36.784Z,99622.61
2018-12-11T08:47:05.237Z,99638.75
2018-12-11T08:49:33.636Z,99641.44
2018-12-11T08:52:01.968Z,99632.44
2018-12-11T08:54:30.571Z,99637.73
2018-12-11T08:56:59.053Z,99635.61
2018-12-11T08:59:27.736Z,99632.17
2018-12-11T09:01:56.058Z,99639.32
2018-12-11T09:04:24.403Z,99636.17
2018-12-11T09:06:53.009Z,99640.61
2018-12-11T09:09:21.490Z,99644.61
2018-12-11T09:11:49.823Z,99647.27
2018-12-11T09:14:18.269Z,99659.66
2018-12-11T09:16:46.647Z,99654.38
2018-12-11T09:19:14.962Z,99664.73
2018-12-11T09:21:43.321Z,99665.00
2018-12-11T09:24:11.631Z,99661.29
2018-12-11T09:26:40.044Z,99674.52
2018-12-11T09:29:08.605Z,99661.78
2018-12-11T09:31:37.290Z,99662.61
2018-12-11T09:34:05.699Z,99662.31
2018-12-11T09:36:34.026Z,99660.23
2018-12-11T09:39:02.645Z,99677.44
2018-12-11T09:41:31.007Z,99669.50
2018-12-11T09:43:59.349Z,99668.97
2018-12-11T09:46:27.698Z,99677.77
2018-12-11T09:48:56.037Z,99671.69
2018-12-11T09:51:24.460Z,99668.02
2018-12-11T09:53:53.243Z,99674.64
2018-12-11T09:56:21.612Z,99680.20
2018-12-11T09:58:50.002Z,99678.34
2018-12-11T10:01:18.331Z,99684.17
2018-12-11T10:03:46.938Z,99681.30
2018-12-11T10:06:15.420Z,99681.86
2018-12-11T10:08:43.743Z,99677.84
2018-12-11T10:11:12.115Z,99688.19
2018-12-11T10:13:40.432Z,99684.70
2018-12-11T10:16:08.775Z,99688.19
2018-12-11T10:18:37.166Z,99691.13
2018-12-11T10:21:05.517Z,99683.75
2018-12-11T10:23:34.160Z,99691.70
2018-12-11T10:26:02.494Z,99689.50
2018-12-11T10:28:30.863Z,99693.02
2018-12-11T10:30:59.183Z,99689.88
2018-12-11T10:33:27.610Z,99697.30
2018-12-11T10:35:56.107Z,99697.82
2018-12-11T10:38:24.865Z,99700.24
2018-12-11T10:40:53.449Z,99694.65
2018-12-11T10:43:21.956Z,99698.92
2018-12-11T10:45:50.352Z,99703.34
2018-12-11T10:48:18.741Z,99702.59
2018-12-11T10:50:47.103Z,99697.82
2018-12-11T10:53:15.447Z,99704.44
2018-12-11T10:55:43.782Z,99706.33
2018-12-11T10:58:12.171Z,99703.95
2018-12-11T11:00:44.618Z,99710.65
2018-12-11T11:03:13.092Z,99707.66
2018-12-11T11:05:41.573Z,99722.34
2018-12-11T11:08:09.957Z,99716.73
2018-12-11T11:10:38.367Z,99723.05
2018-12-11T11:13:07.005Z,99726.20
2018-12-11T11:15:35.577Z,99723.55
2018-12-11T11:18:03.901Z,99717.95
2018-12-11T11:20:32.259Z,99721.09
2018-12-11T11:23:00.661Z,99732.85
2018-12-11T11:25:29.021Z,99730.70
2018-12-11T11:27:57.362Z,99729.91
2018-12-11T11:30:25.673Z,99738.72
2018-12-11T11:32:54.070Z,99741.63
2018-12-11T11:35:22.450Z,99734.48
2018-12-11T11:37:50.771Z,99743.22
2018-12-11T11:40:19.104Z,99748.03
2018-12-11T11:42:47.432Z,99745.94
2018-12-11T11:45:15.763Z,99746.97
2018-12-11T11:47:44.419Z,99740.88
2018-12-11T11:50:14.221Z,99756.92
2018-12-11T11:52:42.547Z,99751.39
2018-12-11T11:55:10.911Z,99757.71
2018-12-11T11:57:39.280Z,99749.27
2018-12-11T12:00:10.365Z,99753.73
2018-12-11T12:02:38.822Z,99755.06
2018-12-11T12:05:07.192Z,99759.56
2018-12-11T12:07:35.530Z,99769.44
2018-12-11T12:10:05.698Z,99763.84
2018-12-11T12:12:34.190Z,99766.00
2018-12-11T12:15:02.504Z,99772.05
2018-12-11T12:17:30.947Z,99772.05
2018-12-11T12:19:59.287Z,99768.64
2018-12-11T12:22:27.817Z,99776.36
2018-12-11T12:24:56.656Z,99770.23
2018-12-11T12:27:25.343Z,99773.45
2018-12-11T12:29:53.760Z,99775.61
2018-12-11T12:32:22.134Z,99771.38
2018-12-11T12:34:50.503Z,99780.64
2018-12-11T12:37:18.891Z,99785.94
2018-12-11T12:39:47.263Z,99784.91
2018-12-11T12:42:15.622Z,99780.94
2018-12-11T12:44:43.976Z,99789.34
2018-12-11T12:47:12.408Z,99780.37
2018-12-11T12:49:40.727Z,99790.48
2018-12-11T12:52:09.214Z,99783.62
2018-12-11T12:54:37.538Z,99778.30
2018-12-11T12:57:05.972Z,99790.22
2018-12-11T12:59:34.482Z,99796.88
2018-12-11T13:02:03.270Z,99794.98
2018-12-11T13:04:31.683Z,99798.70
2018-12-11T13:07:00.166Z,99809.02
2018-12-11T13:09:28.877Z,99802.93
2018-12-11T13:11:57.206Z,99806.10
2018-12-11T13:14:25.550Z,99805.27
2018-12-11T13:16:53.971Z,99810.08
2018-12-11T13:19:22.330Z,99811.67
2018-12-11T13:21:50.692Z,99818.02
2018-12-11T13:24:19.027Z,99821.17
2018-12-11T13:26:47.400Z,99831.27
2018-12-11T13:29:15.733Z,99821.70
2018-12-11T13:31:44.247Z,99828.66
2018-12-11T13:34:13.025Z,99833.70
2018-12-11T13:36:41.504Z,99834.41
2018-12-11T13:39:10.239Z,99830.55
2018-12-11T13:41:38.619Z,99837.31
2018-12-11T13:44:07.307Z,99838.91
2018-12-11T13:46:35.743Z,99833.34
2018-12-11T13:49:04.249Z,99842.31
2018-12-11T13:51:32.636Z,99846.81
2018-12-11T13:54:01.004Z,99846.86
2018-12-11T13:56:29.356Z,99855.14
2018-12-11T13:58:57.676Z,99859.30
2018-12-11T14:01:27.419Z,99863.59
2018-12-11T14:04:03.341Z,99867.78
2018-12-11T14:06:31.662Z,99873.64
2018-12-11T14:09:01.907Z,99866.16
2018-12-11T14:11:30.226Z,99870.70
2018-12-11T14:13:58.558Z,99869.37
2018-12-11T14:16:26.864Z,99864.07
2018-12-11T14:18:55.234Z,99876.74
2018-12-11T14:21:23.595Z,99883.89
2018-12-11T14:23:52.023Z,99881.02
2018-12-11T14:26:20.352Z,99889.77
2018-12-11T14:28:48.722Z,99891.05
2018-12-11T14:31:17.183Z,99886.77
2018-12-11T14:33:45.630Z,99891.31
2018-12-11T14:36:13.985Z,99891.31
2018-12-11T14:38:42.464Z,99893.69
2018-12-11T14:41:11.046Z,99897.44
2018-12-11T14:43:39.556Z,99894.26
2018-12-11T14:46:07.937Z,99901.11
2018-12-11T14:48:36.271Z,99900.31
2018-12-11T14:51:04.615Z,99896.82
2018-12-11T14:53:32.984Z,99895.42
2018-12-11T14:56:01.411Z,99898.94
2018-12-11T14:58:29.764Z,99898.14
2018-12-11T15:01:02.781Z,99910.60
2018-12-11T15:03:31.237Z,99899.16
2018-12-11T15:06:00.172Z,99900.97
2018-12-11T15:08:30.643Z,99897.17
2018-12-11T15:11:02.847Z,99891.88
2018-12-11T15:13:31.449Z,99900.67
2018-12-11T15:15:59.931Z,99890.52
2018-12-11T15:18:28.547Z,99899.83
2018-12-11T15:20:56.907Z,99899.78
2018-12-11T15:23:25.238Z,99905.17
2018-12-11T15:25:53.579Z,99896.16
2018-12-11T15:28:21.933Z,99905.12
2018-12-11T15:30:54.485Z,99898.41
2018-12-11T15:33:23.123Z,99908.42
2018-12-11T15:35:51.503Z,99900.26
2018-12-11T15:38:19.972Z,99912.22
2018-12-11T15:40:48.297Z,99915.09
2018-12-11T15:43:16.832Z,99915.05
2018-12-11T15:45:45.159Z,99912.34
2018-12-11T15:48:13.679Z,99915.22
2018-12-11T15:50:42.262Z,99912.57
2018-12-11T15:53:10.599Z,99919.19
2018-12-11T15:55:38.963Z,99922.89
2018-12-11T15:58:07.973Z,99919.19
2018-12-11T16:00:36.379Z,99913.58
2018-12-11T16:03:05.959Z,99928.71
2018-12-11T16:05:34.296Z,99916.75
2018-12-11T16:08:03.127Z,99924.11
2018-12-11T16:10:31.609Z,99927.52
2018-12-11T16:13:00.158Z,99931.18
2018-12-11T16:15:28.548Z,99933.03
2018-12-11T16:17:56.917Z,99940.65
2018-12-11T16:20:25.279Z,99941.45
2018-12-11T16:22:53.858Z,99939.65
2018-12-11T16:25:22.443Z,99943.79
2018-12-11T16:27:50.927Z,99936.27
2018-12-11T16:30:19.314Z,99942.94
2018-12-11T16:32:48.538Z,99948.70
2018-12-11T16:35:17.444Z,99949.50
2018-12-11T16:37:45.995Z,99949.40
2018-12-11T16:40:14.419Z,99952.05
2018-12-11T16:42:42.714Z,99954.59
2018-12-11T16:45:11.271Z,99956.19
2018-12-11T16:47:39.582Z,99957.23
2018-12-11T16:50:08.017Z,99951.20
2018-12-11T16:52:38.281Z,99949.57
2018-12-11T16:55:10.815Z,99958.03
2018-12-11T16:57:40.492Z,99959.30
2018-12-11T17:00:18.897Z,99958.20
2018-12-11T17:02:52.168Z,99961.64
2018-12-11T17:05:25.974Z,99962.97
2018-12-11T17:07:55.742Z,99962.75
2018-12-11T17:10:28.523Z,99964.02
2018-12-11T17:13:02.487Z,99961.27
2018-12-11T17:15:35.196Z,99966.88
2018-12-11T17:18:04.775Z,99976.92
2018-12-11T17:20:34.294Z,99972.42
2018-12-11T17:23:02.612Z,99977.08
2018-12-11T17:25:30.947Z,99976.39
2018-12-11T17:27:59.374Z,99985.41
2018-12-11T17:30:27.741Z,99985.98
2018-12-11T17:32:56.451Z,99983.06
2018-12-11T17:35:24.956Z,99992.59
2018-12-11T17:37:53.303Z,99982.90
2018-12-11T17:40:21.659Z,99986.92
2018-12-11T17:42:50.308Z,99989.68
2018-12-11T17:45:18.747Z,99987.09
2018-12-11T17:47:48.767Z,99995.30
2018-12-11T17:50:17.309Z,99991.63
2018-12-11T17:52:45.743Z,99988.41
2018-12-11T17:55:14.423Z,99998.52
2018-12-11T17:57:43.311Z,99996.23
2018-12-11T18:00:12.731Z,99994.39
2018-12-11T18:02:41.111Z,99994.39
2018-12-11T18:05:09.583Z,99999.22
2018-12-11T18:07:38.334Z,100002.66
2018-12-11T18:10:06.883Z,99998.63
2018-12-11T18:12:35.197Z,100000.27
2018-12-11T18:15:04.280Z,99999.52
2018-12-11T18:17:32.619Z,100001.12
2018-12-11T18:20:01.097Z,100001.33
2018-12-11T18:22:29.541Z,100003.29
2018-12-11T18:24:57.861Z,100009.69
2018-12-11T18:27:26.237Z,100003.59
2018-12-11T18:29:54.561Z,100008.89
2018-12-11T18:32:27.448Z,100005.61
2018-12-11T18:34:55.987Z,100012.34
2018-12-11T18:37:24.343Z,100012.75
2018-12-11T18:39:53.207Z,100014.19
2018-12-11T18:42:21.690Z,100010.44
2018-12-11T18:44:50.273Z,100014.98
2018-12-11T18:47:18.647Z,100018.67
2018-12-11T18:49:47.951Z,100018.27
2018-12-11T18:52:16.350Z,100019.59
2018-12-11T18:54:44.952Z,100014.02
2018-12-11T18:57:13.311Z,100014.87
2018-12-11T18:59:41.622Z,100012.97
2018-12-11T19:02:10.016Z,100011.64
2018-12-11T19:04:38.381Z,100003.23
2018-12-11T19:07:06.710Z,100014.34
2018-12-11T19:09:35.134Z,100011.86
2018-12-11T19:12:03.486Z,100016.56
2018-12-11T19:14:31.884Z,100025.13
2018-12-11T19:17:00.324Z,100013.70
2018-12-11T19:19:29.063Z,100019.69
2018-12-11T19:21:57.438Z,100026.26
2018-12-11T19:24:25.911Z,100027.00
2018-12-11T19:26:54.280Z,100026.48
2018-12-11T19:29:22.779Z,100022.34
2018-12-11T19:31:51.182Z,100025.78
2018-12-11T19:34:19.575Z,100030.45
2018-12-11T19:36:47.925Z,100023.61
2018-12-11T19:39:16.273Z,100033.05
2018-12-11T19:41:44.684Z,100028.00
2018-12-11T19:44:13.227Z,100024.30
2018-12-11T19:46:42.015Z,100030.70
2018-12-11T19:49:10.447Z,100030.75
2018-12-11T19:51:38.837Z,100035.20
2018-12-11T19:54:07.416Z,100031.50
2018-12-11T19:56:35.834Z,100032.08
2018-12-11T19:59:04.775Z,100043.41
2018-12-11T20:01:33.100Z,100037.53
2018-12-11T20:04:01.548Z,100036.44
2018-12-11T20:06:30.107Z,100047.11
2018-12-11T20:08:58.560Z,100041.81
2018-12-11T20:11:27.224Z,100040.92
2018-12-11T20:13:55.686Z,100044.95
2018-12-11T20:16:24.663Z,100039.91
2018-12-11T20:18:53.118Z,100050.66
2018-12-11T20:21:21.686Z,100043.00
2018-12-11T20:23:50.208Z,100047.27
2018-12-11T20:26:18.588Z,100046.80
2018-12-11T20:28:46.959Z,100052.84
2018-12-11T20:31:18.033Z,100055.73
2018-12-11T20:33:46.444Z,100052.62
2018-12-11T20:36:14.830Z,100054.91
2018-12-11T20:38:43.346Z,100056.81
2018-12-11T20:41:11.669Z,100053.64
2018-12-11T20:43:40.087Z,100056.42
2018-12-11T20:46:08.441Z,100058.33
2018-12-11T20:48:36.852Z,100052.73
2018-12-11T20:51:05.203Z,100054.80
2018-12-11T20:53:33.895Z,100058.48
2018-12-11T20:56:02.786Z,100065.33
2018-12-11T20:58:31.436Z,100061.13
2018-12-11T21:00:59.786Z,100064.36
2018-12-11T21:03:28.115Z,100063.48
2018-12-11T21:05:56.448Z,100070.15
2018-12-11T21:08:25.236Z,100066.27
2018-12-11T21:10:53.573Z,100067.01
2018-12-11T21:13:22.122Z,100068.61
2018-12-11T21:15:50.462Z,100072.30
2018-12-11T21:18:18.864Z,100071.41
2018-12-11T21:20:47.268Z,100070.15
2018-12-11T21:23:15.652Z,100075.17
2018-12-11T21:25:44.095Z,100076.08
2018-12-11T21:28:12.743Z,100078.51
2018-12-11T21:30:41.223Z,100078.61
2018-12-11T21:33:09.652Z,100079.36
2018-12-11T21:35:38.135Z,100081.73
2018-12-11T21:38:06.516Z,100087.44
2018-12-11T21:40:34.996Z,100080.68
2018-12-11T21:43:03.356Z,100088.30
2018-12-11T21:45:31.707Z,100089.88
2018-12-11T21:48:00.133Z,100097.19
2018-12-11T21:50:28.516Z,100099.89
2018-12-11T21:52:57.137Z,100097.48
2018-12-11T21:55:25.471Z,100105.13
2018-12-11T21:57:53.892Z,100108.41
2018-12-11T22:00:22.243Z,100122.11
2018-12-11T22:02:50.755Z,100114.50
2018-12-11T22:05:19.257Z,100114.38
2018-12-11T22:07:47.658Z,100112.56
2018-12-11T22:10:16.047Z,100122.27
2018-12-11T22:12:44.384Z,100122.84
2018-12-11T22:15:12.726Z,100126.48
2018-12-11T22:17:41.052Z,100124.08
2018-12-11T22:20:09.479Z,100124.30
2018-12-11T22:22:37.839Z,100127.62
2018-12-11T22:25:06.193Z,100129.86
2018-12-11T22:27:34.658Z,100129.80
2018-12-11T22:30:02.972Z,100131.55
2018-12-11T22:32:31.449Z,100140.53
2018-12-11T22:35:00.004Z,100138.68
2018-12-11T22:37:28.437Z,100142.37
2018-12-11T22:39:57.084Z,100138.20
2018-12-11T22:42:25.670Z,100136.37
2018-12-11T22:44:54.112Z,100143.05
2018-12-11T22:47:22.476Z,100148.63
2018-12-11T22:49:50.822Z,100147.11
2018-12-11T22:52:19.227Z,100147.84
2018-12-11T22:54:47.619Z,100152.39
2018-12-11T22:57:15.979Z,100154.45
2018-12-11T22:59:44.333Z,100158.79
2018-12-11T23:02:12.811Z,100158.34
2018-12-11T23:04:41.370Z,100156.36
2018-12-11T23:07:09.733Z,100161.44
2018-12-11T23:09:38.132Z,100169.22
2018-12-11T23:12:06.441Z,100169.13
2018-12-11T23:14:35.215Z,100162.83
2018-12-11T23:17:04.002Z,100166.06
2018-12-11T23:19:32.424Z,100164.66
2018-12-11T23:22:00.808Z,100165.02
2018-12-11T23:24:29.155Z,100169.36
2018-12-11T23:26:57.574Z,100167.38
2018-12-11T23:29:25.916Z,100171.63
2018-12-11T23:31:54.347Z,100171.03
2018-12-11T23:34:22.685Z,100174.58
2018-12-11T23:36:51.043Z,100177.72
2018-12-11T23:39:19.564Z,100177.78
2018-12-11T23:41:47.900Z,100184.49
2018-12-11T23:44:16.320Z,100189.02
2018-12-11T23:46:44.683Z,100182.26
2018-12-11T23:49:13.246Z,100188.06
2018-12-11T23:51:42.956Z,100184.55
2018-12-11T23:54:11.303Z,100194.16
2018-12-11T23:56:39.655Z,100193.42
2018-12-11T23:59:08.057Z,100192.38
